Accueil
METAR-TAF:

METAR-TAF

Aéroports :

University of Oklahoma Westheimer Airport

Norman, Oklahoma, États-Unis

latitude: 35-13N, longitude: 097-27W, altitude: 357 m

Observation

Le bulletin a été fait il y a 51 minutes, à 01:45 UTC
Vent 4 kt de sud/sud-est
Température 3°C
Humidité 56%
Pression 1026 hPa
Visibilité: 16.1 km
Ciel clair

METAR: KOUN 110145Z 15004KT 10SM CLR 03/M05 A3029

Heure: 20:36 (02:36 UTC)

Prévision

Le bulletin a été fait il y a 3 heures et 16 minutes, à 23:20 UTC
Prévision valable du 11 à 00 UTC au 11 à 24 UTC
Vent 4 kt de direction variable
Visibilité: 10 km
Ciel clair
A partir de 11 à 1500 UTC
Vent 15 kt de sud/sud-ouest avec des rafales jusqu'à 25 kt
Visibilité: 10 km
Nuages fragmentés à une hauteur de 25000 ft

TAF: KOUN 102320Z 1100/1124 VRB04KT P6SM SKC FM111500 20015G25KT P6SM BKN250

Observations et prévisions météorologiques de plus de 4000 aéroports (messages METAR et TAF).

Les stations disponibles sont représentées par des disques jaunes et rouges sur la carte.

Passer la souris dessus pour voir le nom de la station.

Cliquer dessus pour voir les observations et prévisions météorologiques.

Pour changer de carte: cliquez sur les boutons verts avec une croix noire pour zoomer, sur le bouton vert avec un tiret pour effectuer un zoom arrière, ou sur les flèches vertes pour les cartes adjacentes.


METAR-TAF: